sensor_id;sensor_type;location;lat;lon;timestamp;P1;durP1;ratioP1;P2;durP2;ratioP2
54929;SDS011;40833;53.238;6.576;2022-10-17T00:01:50;9.27;;;3.20;;
54929;SDS011;40833;53.238;6.576;2022-10-17T00:04:16;16.60;;;3.60;;
54929;SDS011;40833;53.238;6.576;2022-10-17T00:06:42;24.00;;;5.93;;
54929;SDS011;40833;53.238;6.576;2022-10-17T00:09:08;19.47;;;8.40;;
54929;SDS011;40833;53.238;6.576;2022-10-17T00:11:33;27.87;;;12.33;;
54929;SDS011;40833;53.238;6.576;2022-10-17T00:13:59;30.53;;;12.77;;
54929;SDS011;40833;53.238;6.576;2022-10-17T00:16:29;28.60;;;12.37;;
54929;SDS011;40833;53.238;6.576;2022-10-17T00:19:00;25.63;;;10.77;;
54929;SDS011;40833;53.238;6.576;2022-10-17T00:21:27;30.33;;;10.07;;
54929;SDS011;40833;53.238;6.576;2022-10-17T00:23:53;24.43;;;9.13;;
54929;SDS011;40833;53.238;6.576;2022-10-17T00:26:19;20.23;;;7.77;;
54929;SDS011;40833;53.238;6.576;2022-10-17T00:28:46;20.40;;;6.60;;
54929;SDS011;40833;53.238;6.576;2022-10-17T00:34:53;15.23;;;5.40;;
54929;SDS011;40833;53.238;6.576;2022-10-17T00:37:18;11.73;;;3.73;;
54929;SDS011;40833;53.238;6.576;2022-10-17T00:39:44;15.00;;;3.37;;
54929;SDS011;40833;53.238;6.576;2022-10-17T00:42:13;20.00;;;3.17;;
54929;SDS011;40833;53.238;6.576;2022-10-17T00:47:12;13.25;;;2.83;;
54929;SDS011;40833;53.238;6.576;2022-10-17T00:49:40;14.40;;;2.87;;
54929;SDS011;40833;53.238;6.576;2022-10-17T00:52:07;10.57;;;2.57;;
54929;SDS011;40833;53.238;6.576;2022-10-17T00:54:38;19.13;;;3.30;;
54929;SDS011;40833;53.238;6.576;2022-10-17T00:57:08;9.30;;;2.60;;
54929;SDS011;40833;53.238;6.576;2022-10-17T00:59:35;14.47;;;2.43;;
54929;SDS011;40833;53.238;6.576;2022-10-17T01:02:04;7.60;;;2.30;;
54929;SDS011;40833;53.238;6.576;2022-10-17T01:04:32;12.77;;;3.00;;
54929;SDS011;40833;53.238;6.576;2022-10-17T01:06:59;16.70;;;3.10;;
54929;SDS011;40833;53.238;6.576;2022-10-17T01:09:25;10.87;;;3.07;;
54929;SDS011;40833;53.238;6.576;2022-10-17T01:11:55;13.43;;;2.87;;
54929;SDS011;40833;53.238;6.576;2022-10-17T01:31:44;10.70;;;4.10;;
54929;SDS011;40833;53.238;6.576;2022-10-17T01:39:49;10.00;;;4.30;;
54929;SDS011;40833;53.238;6.576;2022-10-17T01:42:31;17.77;;;5.20;;
54929;SDS011;40833;53.238;6.576;2022-10-17T01:45:05;11.83;;;4.90;;
54929;SDS011;40833;53.238;6.576;2022-10-17T01:47:40;17.00;;;4.97;;
54929;SDS011;40833;53.238;6.576;2022-10-17T01:50:09;20.57;;;5.37;;
54929;SDS011;40833;53.238;6.576;2022-10-17T01:52:41;11.10;;;4.70;;
54929;SDS011;40833;53.238;6.576;2022-10-17T01:55:24;12.93;;;5.07;;
54929;SDS011;40833;53.238;6.576;2022-10-17T01:57:54;10.63;;;5.27;;
54929;SDS011;40833;53.238;6.576;2022-10-17T02:00:25;19.50;;;6.27;;
54929;SDS011;40833;53.238;6.576;2022-10-17T02:02:54;14.87;;;4.40;;
54929;SDS011;40833;53.238;6.576;2022-10-17T02:05:36;20.10;;;5.20;;
54929;SDS011;40833;53.238;6.576;2022-10-17T02:08:04;8.17;;;4.83;;
54929;SDS011;40833;53.238;6.576;2022-10-17T02:13:12;12.77;;;4.50;;
54929;SDS011;40833;53.238;6.576;2022-10-17T02:19:14;13.83;;;5.53;;
54929;SDS011;40833;53.238;6.576;2022-10-17T02:22:04;14.47;;;5.47;;
54929;SDS011;40833;53.238;6.576;2022-10-17T02:29:59;16.60;;;6.83;;
54929;SDS011;40833;53.238;6.576;2022-10-17T02:32:54;10.80;;;6.23;;
54929;SDS011;40833;53.238;6.576;2022-10-17T02:35:24;14.45;;;6.72;;
54929;SDS011;40833;53.238;6.576;2022-10-17T02:37:54;14.90;;;7.93;;
54929;SDS011;40833;53.238;6.576;2022-10-17T02:40:20;15.67;;;8.67;;
54929;SDS011;40833;53.238;6.576;2022-10-17T02:42:51;17.87;;;8.53;;
54929;SDS011;40833;53.238;6.576;2022-10-17T02:45:18;16.17;;;8.90;;
54929;SDS011;40833;53.238;6.576;2022-10-17T02:50:26;17.57;;;9.10;;
54929;SDS011;40833;53.238;6.576;2022-10-17T02:52:58;16.90;;;9.80;;
54929;SDS011;40833;53.238;6.576;2022-10-17T02:58:05;18.40;;;9.73;;
54929;SDS011;40833;53.238;6.576;2022-10-17T03:00:37;18.30;;;9.63;;
54929;SDS011;40833;53.238;6.576;2022-10-17T03:03:18;17.97;;;10.03;;
54929;SDS011;40833;53.238;6.576;2022-10-17T03:05:48;15.93;;;8.53;;
54929;SDS011;40833;53.238;6.576;2022-10-17T03:08:14;17.53;;;9.10;;
54929;SDS011;40833;53.238;6.576;2022-10-17T03:10:40;11.90;;;8.37;;
54929;SDS011;40833;53.238;6.576;2022-10-17T03:13:05;17.27;;;9.17;;
54929;SDS011;40833;53.238;6.576;2022-10-17T03:15:31;17.17;;;9.27;;
54929;SDS011;40833;53.238;6.576;2022-10-17T03:17:57;13.10;;;8.97;;
54929;SDS011;40833;53.238;6.576;2022-10-17T03:20:23;11.73;;;8.17;;
54929;SDS011;40833;53.238;6.576;2022-10-17T03:22:48;13.03;;;8.67;;
54929;SDS011;40833;53.238;6.576;2022-10-17T03:25:14;18.87;;;8.90;;
54929;SDS011;40833;53.238;6.576;2022-10-17T03:27:40;14.97;;;8.57;;
54929;SDS011;40833;53.238;6.576;2022-10-17T03:30:05;11.00;;;7.97;;
54929;SDS011;40833;53.238;6.576;2022-10-17T03:32:32;16.20;;;7.53;;
54929;SDS011;40833;53.238;6.576;2022-10-17T03:34:58;14.33;;;7.97;;
54929;SDS011;40833;53.238;6.576;2022-10-17T03:37:24;13.13;;;7.17;;
54929;SDS011;40833;53.238;6.576;2022-10-17T03:39:49;8.33;;;6.60;;
54929;SDS011;40833;53.238;6.576;2022-10-17T03:42:15;14.87;;;6.73;;
54929;SDS011;40833;53.238;6.576;2022-10-17T03:44:41;15.03;;;7.27;;
54929;SDS011;40833;53.238;6.576;2022-10-17T03:47:06;9.17;;;7.00;;
54929;SDS011;40833;53.238;6.576;2022-10-17T03:49:32;14.83;;;6.90;;
54929;SDS011;40833;53.238;6.576;2022-10-17T03:51:58;13.27;;;7.53;;
54929;SDS011;40833;53.238;6.576;2022-10-17T03:54:23;12.37;;;8.20;;
54929;SDS011;40833;53.238;6.576;2022-10-17T03:56:49;12.83;;;8.10;;
54929;SDS011;40833;53.238;6.576;2022-10-17T03:59:15;17.57;;;8.30;;
54929;SDS011;40833;53.238;6.576;2022-10-17T04:01:41;14.53;;;8.23;;
54929;SDS011;40833;53.238;6.576;2022-10-17T04:04:07;15.47;;;8.80;;
54929;SDS011;40833;53.238;6.576;2022-10-17T04:06:33;13.10;;;8.57;;
54929;SDS011;40833;53.238;6.576;2022-10-17T04:09:00;12.40;;;8.60;;
54929;SDS011;40833;53.238;6.576;2022-10-17T04:11:26;13.77;;;8.70;;
54929;SDS011;40833;53.238;6.576;2022-10-17T04:13:55;13.10;;;8.80;;
54929;SDS011;40833;53.238;6.576;2022-10-17T04:16:23;15.20;;;8.93;;
54929;SDS011;40833;53.238;6.576;2022-10-17T04:18:56;18.47;;;9.20;;
54929;SDS011;40833;53.238;6.576;2022-10-17T04:21:23;11.93;;;9.47;;
54929;SDS011;40833;53.238;6.576;2022-10-17T04:23:56;12.47;;;9.90;;
54929;SDS011;40833;53.238;6.576;2022-10-17T04:26:23;19.20;;;9.57;;
54929;SDS011;40833;53.238;6.576;2022-10-17T04:28:50;15.00;;;10.23;;
54929;SDS011;40833;53.238;6.576;2022-10-17T04:31:16;12.90;;;9.93;;
54929;SDS011;40833;53.238;6.576;2022-10-17T04:33:45;11.97;;;9.83;;
54929;SDS011;40833;53.238;6.576;2022-10-17T04:36:12;13.80;;;9.77;;
54929;SDS011;40833;53.238;6.576;2022-10-17T04:38:39;15.77;;;11.27;;
54929;SDS011;40833;53.238;6.576;2022-10-17T04:41:06;15.77;;;10.67;;
54929;SDS011;40833;53.238;6.576;2022-10-17T04:43:34;18.73;;;11.30;;
54929;SDS011;40833;53.238;6.576;2022-10-17T04:46:02;15.37;;;11.40;;
54929;SDS011;40833;53.238;6.576;2022-10-17T04:48:29;14.00;;;11.67;;
54929;SDS011;40833;53.238;6.576;2022-10-17T04:50:56;18.23;;;12.40;;
54929;SDS011;40833;53.238;6.576;2022-10-17T04:53:30;17.73;;;10.80;;
54929;SDS011;40833;53.238;6.576;2022-10-17T04:55:57;18.23;;;11.93;;
54929;SDS011;40833;53.238;6.576;2022-10-17T04:58:23;19.37;;;12.13;;
54929;SDS011;40833;53.238;6.576;2022-10-17T05:00:49;17.97;;;12.70;;
54929;SDS011;40833;53.238;6.576;2022-10-17T05:03:15;23.60;;;13.07;;
54929;SDS011;40833;53.238;6.576;2022-10-17T05:05:41;21.57;;;13.50;;
54929;SDS011;40833;53.238;6.576;2022-10-17T05:08:12;18.02;;;13.55;;
54929;SDS011;40833;53.238;6.576;2022-10-17T05:10:42;19.70;;;13.37;;
54929;SDS011;40833;53.238;6.576;2022-10-17T05:13:10;19.35;;;13.43;;
54929;SDS011;40833;53.238;6.576;2022-10-17T05:15:36;17.93;;;13.00;;
54929;SDS011;40833;53.238;6.576;2022-10-17T05:18:03;22.47;;;14.07;;
54929;SDS011;40833;53.238;6.576;2022-10-17T05:20:29;17.40;;;13.30;;
54929;SDS011;40833;53.238;6.576;2022-10-17T05:22:59;23.20;;;13.77;;
54929;SDS011;40833;53.238;6.576;2022-10-17T05:25:27;19.10;;;14.50;;
54929;SDS011;40833;53.238;6.576;2022-10-17T05:27:53;23.20;;;15.23;;
54929;SDS011;40833;53.238;6.576;2022-10-17T05:30:18;20.60;;;15.10;;
54929;SDS011;40833;53.238;6.576;2022-10-17T05:32:44;22.77;;;15.93;;
54929;SDS011;40833;53.238;6.576;2022-10-17T05:35:10;19.30;;;15.60;;
54929;SDS011;40833;53.238;6.576;2022-10-17T05:37:36;22.03;;;16.47;;
54929;SDS011;40833;53.238;6.576;2022-10-17T05:40:01;29.03;;;18.17;;
54929;SDS011;40833;53.238;6.576;2022-10-17T05:42:27;27.80;;;17.63;;
54929;SDS011;40833;53.238;6.576;2022-10-17T05:44:53;31.40;;;18.53;;
54929;SDS011;40833;53.238;6.576;2022-10-17T05:47:19;27.27;;;17.47;;
54929;SDS011;40833;53.238;6.576;2022-10-17T05:49:44;28.40;;;17.50;;
54929;SDS011;40833;53.238;6.576;2022-10-17T05:52:10;32.43;;;17.73;;
54929;SDS011;40833;53.238;6.576;2022-10-17T05:54:36;24.47;;;17.20;;
54929;SDS011;40833;53.238;6.576;2022-10-17T05:57:01;26.57;;;17.50;;
54929;SDS011;40833;53.238;6.576;2022-10-17T05:59:27;27.53;;;17.77;;
54929;SDS011;40833;53.238;6.576;2022-10-17T06:01:53;32.83;;;18.33;;
54929;SDS011;40833;53.238;6.576;2022-10-17T06:04:19;27.73;;;17.60;;
54929;SDS011;40833;53.238;6.576;2022-10-17T06:06:45;28.33;;;17.00;;
54929;SDS011;40833;53.238;6.576;2022-10-17T06:09:11;27.60;;;17.80;;
54929;SDS011;40833;53.238;6.576;2022-10-17T06:11:37;27.90;;;17.57;;
54929;SDS011;40833;53.238;6.576;2022-10-17T06:14:03;26.70;;;16.83;;
54929;SDS011;40833;53.238;6.576;2022-10-17T06:16:29;27.53;;;18.27;;
54929;SDS011;40833;53.238;6.576;2022-10-17T06:18:55;26.63;;;17.33;;
54929;SDS011;40833;53.238;6.576;2022-10-17T06:21:22;26.77;;;17.40;;
54929;SDS011;40833;53.238;6.576;2022-10-17T06:23:49;32.30;;;16.83;;
54929;SDS011;40833;53.238;6.576;2022-10-17T06:26:16;31.30;;;16.07;;
54929;SDS011;40833;53.238;6.576;2022-10-17T06:28:42;26.47;;;17.07;;
54929;SDS011;40833;53.238;6.576;2022-10-17T06:31:10;26.07;;;16.87;;
54929;SDS011;40833;53.238;6.576;2022-10-17T06:33:37;22.77;;;15.37;;
54929;SDS011;40833;53.238;6.576;2022-10-17T06:36:04;23.77;;;16.23;;
54929;SDS011;40833;53.238;6.576;2022-10-17T06:38:32;22.47;;;15.63;;
54929;SDS011;40833;53.238;6.576;2022-10-17T06:41:09;27.37;;;16.17;;
54929;SDS011;40833;53.238;6.576;2022-10-17T06:43:37;32.40;;;16.07;;
54929;SDS011;40833;53.238;6.576;2022-10-17T06:46:04;18.67;;;14.87;;
54929;SDS011;40833;53.238;6.576;2022-10-17T06:48:30;23.33;;;16.20;;
54929;SDS011;40833;53.238;6.576;2022-10-17T06:50:57;25.53;;;16.47;;
54929;SDS011;40833;53.238;6.576;2022-10-17T06:53:28;22.88;;;14.90;;
54929;SDS011;40833;53.238;6.576;2022-10-17T06:55:55;18.57;;;14.93;;
54929;SDS011;40833;53.238;6.576;2022-10-17T06:58:29;19.33;;;15.63;;
54929;SDS011;40833;53.238;6.576;2022-10-17T07:00:58;28.10;;;15.20;;
54929;SDS011;40833;53.238;6.576;2022-10-17T07:03:25;24.70;;;14.70;;
54929;SDS011;40833;53.238;6.576;2022-10-17T07:05:51;24.10;;;14.93;;
54929;SDS011;40833;53.238;6.576;2022-10-17T07:08:17;21.63;;;14.23;;
54929;SDS011;40833;53.238;6.576;2022-10-17T07:10:43;20.33;;;14.10;;
54929;SDS011;40833;53.238;6.576;2022-10-17T07:13:09;22.77;;;15.10;;
54929;SDS011;40833;53.238;6.576;2022-10-17T07:15:35;22.97;;;14.77;;
54929;SDS011;40833;53.238;6.576;2022-10-17T07:18:01;25.03;;;15.07;;
54929;SDS011;40833;53.238;6.576;2022-10-17T07:20:27;20.83;;;14.23;;
54929;SDS011;40833;53.238;6.576;2022-10-17T07:22:53;23.83;;;13.97;;
54929;SDS011;40833;53.238;6.576;2022-10-17T07:25:18;21.50;;;14.37;;
54929;SDS011;40833;53.238;6.576;2022-10-17T07:27:44;17.90;;;13.80;;
54929;SDS011;40833;53.238;6.576;2022-10-17T07:30:10;15.40;;;13.23;;
54929;SDS011;40833;53.238;6.576;2022-10-17T07:32:36;21.13;;;13.13;;
54929;SDS011;40833;53.238;6.576;2022-10-17T07:35:01;18.43;;;12.93;;
54929;SDS011;40833;53.238;6.576;2022-10-17T07:37:27;18.90;;;12.90;;
54929;SDS011;40833;53.238;6.576;2022-10-17T07:39:54;19.77;;;12.90;;
54929;SDS011;40833;53.238;6.576;2022-10-17T07:42:20;21.93;;;12.90;;
54929;SDS011;40833;53.238;6.576;2022-10-17T07:44:49;17.97;;;11.90;;
54929;SDS011;40833;53.238;6.576;2022-10-17T07:47:18;15.97;;;13.00;;
54929;SDS011;40833;53.238;6.576;2022-10-17T07:49:43;15.63;;;11.40;;
54929;SDS011;40833;53.238;6.576;2022-10-17T07:52:10;14.13;;;11.87;;
54929;SDS011;40833;53.238;6.576;2022-10-17T07:54:36;17.47;;;11.47;;
54929;SDS011;40833;53.238;6.576;2022-10-17T07:57:02;18.60;;;11.33;;
54929;SDS011;40833;53.238;6.576;2022-10-17T07:59:28;15.37;;;11.70;;
54929;SDS011;40833;53.238;6.576;2022-10-17T08:01:56;13.37;;;11.27;;
54929;SDS011;40833;53.238;6.576;2022-10-17T08:04:23;17.77;;;10.37;;
54929;SDS011;40833;53.238;6.576;2022-10-17T08:06:49;16.90;;;10.40;;
54929;SDS011;40833;53.238;6.576;2022-10-17T08:09:15;13.77;;;10.00;;
54929;SDS011;40833;53.238;6.576;2022-10-17T08:11:47;18.20;;;9.63;;
54929;SDS011;40833;53.238;6.576;2022-10-17T08:14:13;15.77;;;10.00;;
54929;SDS011;40833;53.238;6.576;2022-10-17T08:16:41;13.00;;;8.90;;
54929;SDS011;40833;53.238;6.576;2022-10-17T08:19:07;16.53;;;10.00;;
54929;SDS011;40833;53.238;6.576;2022-10-17T08:21:35;13.57;;;8.70;;
54929;SDS011;40833;53.238;6.576;2022-10-17T08:24:01;12.70;;;9.03;;
54929;SDS011;40833;53.238;6.576;2022-10-17T08:26:28;11.20;;;8.50;;
54929;SDS011;40833;53.238;6.576;2022-10-17T08:28:54;9.57;;;8.53;;
54929;SDS011;40833;53.238;6.576;2022-10-17T08:31:21;11.23;;;8.67;;
54929;SDS011;40833;53.238;6.576;2022-10-17T08:33:47;10.13;;;8.43;;
54929;SDS011;40833;53.238;6.576;2022-10-17T08:36:15;13.90;;;8.20;;
54929;SDS011;40833;53.238;6.576;2022-10-17T08:38:42;12.87;;;9.23;;
54929;SDS011;40833;53.238;6.576;2022-10-17T08:44:37;11.90;;;8.53;;
54929;SDS011;40833;53.238;6.576;2022-10-17T08:47:25;10.83;;;7.67;;
54929;SDS011;40833;53.238;6.576;2022-10-17T08:53:34;11.53;;;7.30;;
54929;SDS011;40833;53.238;6.576;2022-10-17T08:56:22;8.20;;;7.30;;
54929;SDS011;40833;53.238;6.576;2022-10-17T08:58:50;10.43;;;7.47;;
54929;SDS011;40833;53.238;6.576;2022-10-17T09:06:49;10.63;;;7.87;;
54929;SDS011;40833;53.238;6.576;2022-10-17T09:13:06;9.83;;;7.20;;
54929;SDS011;40833;53.238;6.576;2022-10-17T09:18:31;11.67;;;7.03;;
54929;SDS011;40833;53.238;6.576;2022-10-17T09:26:16;14.20;;;6.60;;
54929;SDS011;40833;53.238;6.576;2022-10-17T09:28:41;18.30;;;7.27;;
54929;SDS011;40833;53.238;6.576;2022-10-17T09:31:13;9.90;;;6.57;;
54929;SDS011;40833;53.238;6.576;2022-10-17T09:33:41;9.97;;;6.93;;
54929;SDS011;40833;53.238;6.576;2022-10-17T09:36:14;11.53;;;7.00;;
54929;SDS011;40833;53.238;6.576;2022-10-17T09:38:49;14.77;;;7.27;;
54929;SDS011;40833;53.238;6.576;2022-10-17T09:41:25;9.63;;;7.07;;
54929;SDS011;40833;53.238;6.576;2022-10-17T09:43:57;12.17;;;7.50;;
54929;SDS011;40833;53.238;6.576;2022-10-17T09:46:34;7.57;;;6.53;;
54929;SDS011;40833;53.238;6.576;2022-10-17T09:49:04;10.17;;;6.93;;
54929;SDS011;40833;53.238;6.576;2022-10-17T09:51:42;10.90;;;6.87;;
54929;SDS011;40833;53.238;6.576;2022-10-17T09:54:21;14.20;;;7.13;;
54929;SDS011;40833;53.238;6.576;2022-10-17T09:59:34;13.68;;;7.60;;
54929;SDS011;40833;53.238;6.576;2022-10-17T10:02:15;10.23;;;7.97;;
54929;SDS011;40833;53.238;6.576;2022-10-17T10:05:03;9.88;;;7.70;;
54929;SDS011;40833;53.238;6.576;2022-10-17T10:07:39;15.40;;;8.53;;
54929;SDS011;40833;53.238;6.576;2022-10-17T10:10:06;16.90;;;9.00;;
54929;SDS011;40833;53.238;6.576;2022-10-17T10:13:00;14.70;;;8.20;;
54929;SDS011;40833;53.238;6.576;2022-10-17T10:15:44;19.17;;;10.37;;
54929;SDS011;40833;53.238;6.576;2022-10-17T10:23:30;16.80;;;11.27;;
54929;SDS011;40833;53.238;6.576;2022-10-17T10:25:57;15.87;;;10.93;;
54929;SDS011;40833;53.238;6.576;2022-10-17T10:28:30;22.20;;;11.70;;
54929;SDS011;40833;53.238;6.576;2022-10-17T10:31:03;19.80;;;11.60;;
54929;SDS011;40833;53.238;6.576;2022-10-17T10:33:32;21.83;;;11.20;;
54929;SDS011;40833;53.238;6.576;2022-10-17T10:36:05;18.50;;;11.43;;
54929;SDS011;40833;53.238;6.576;2022-10-17T10:38:32;22.13;;;13.10;;
54929;SDS011;40833;53.238;6.576;2022-10-17T10:41:03;23.73;;;13.03;;
54929;SDS011;40833;53.238;6.576;2022-10-17T10:43:34;26.10;;;13.83;;
54929;SDS011;40833;53.238;6.576;2022-10-17T10:46:17;22.73;;;14.23;;
54929;SDS011;40833;53.238;6.576;2022-10-17T10:48:50;23.20;;;15.23;;
54929;SDS011;40833;53.238;6.576;2022-10-17T10:56:53;21.53;;;16.27;;
54929;SDS011;40833;53.238;6.576;2022-10-17T10:59:23;26.03;;;16.13;;
54929;SDS011;40833;53.238;6.576;2022-10-17T11:02:15;27.63;;;16.80;;
54929;SDS011;40833;53.238;6.576;2022-10-17T11:04:48;26.37;;;16.70;;
54929;SDS011;40833;53.238;6.576;2022-10-17T11:07:40;24.17;;;16.42;;
54929;SDS011;40833;53.238;6.576;2022-10-17T11:10:34;26.30;;;15.57;;
54929;SDS011;40833;53.238;6.576;2022-10-17T11:15:58;31.30;;;15.93;;
54929;SDS011;40833;53.238;6.576;2022-10-17T11:18:43;21.17;;;14.80;;
54929;SDS011;40833;53.238;6.576;2022-10-17T11:24:11;23.57;;;14.13;;
54929;SDS011;40833;53.238;6.576;2022-10-17T11:26:53;22.73;;;14.63;;
54929;SDS011;40833;53.238;6.576;2022-10-17T11:29:24;22.40;;;12.80;;
54929;SDS011;40833;53.238;6.576;2022-10-17T11:31:55;18.10;;;13.03;;
54929;SDS011;40833;53.238;6.576;2022-10-17T11:34:26;22.30;;;13.17;;
54929;SDS011;40833;53.238;6.576;2022-10-17T11:36:57;20.10;;;13.37;;
54929;SDS011;40833;53.238;6.576;2022-10-17T11:39:47;18.30;;;13.67;;
54929;SDS011;40833;53.238;6.576;2022-10-17T11:42:27;23.23;;;12.67;;
54929;SDS011;40833;53.238;6.576;2022-10-17T11:45:10;25.00;;;13.83;;
54929;SDS011;40833;53.238;6.576;2022-10-17T11:50:26;19.50;;;11.63;;
54929;SDS011;40833;53.238;6.576;2022-10-17T11:52:59;19.80;;;12.93;;
54929;SDS011;40833;53.238;6.576;2022-10-17T11:55:29;23.00;;;13.77;;
54929;SDS011;40833;53.238;6.576;2022-10-17T12:03:43;15.30;;;9.10;;
54929;SDS011;40833;53.238;6.576;2022-10-17T12:09:29;9.67;;;6.40;;
54929;SDS011;40833;53.238;6.576;2022-10-17T12:12:05;11.17;;;7.33;;
54929;SDS011;40833;53.238;6.576;2022-10-17T12:14:44;7.10;;;6.03;;
54929;SDS011;40833;53.238;6.576;2022-10-17T12:22:49;5.90;;;5.30;;
54929;SDS011;40833;53.238;6.576;2022-10-17T12:25:19;7.13;;;5.40;;
54929;SDS011;40833;53.238;6.576;2022-10-17T12:27:47;7.00;;;5.03;;
54929;SDS011;40833;53.238;6.576;2022-10-17T12:30:16;6.93;;;5.10;;
54929;SDS011;40833;53.238;6.576;2022-10-17T12:33:02;8.63;;;5.70;;
54929;SDS011;40833;53.238;6.576;2022-10-17T12:35:31;6.87;;;5.53;;
54929;SDS011;40833;53.238;6.576;2022-10-17T12:37:59;7.07;;;5.70;;
54929;SDS011;40833;53.238;6.576;2022-10-17T12:43:00;10.87;;;6.63;;
54929;SDS011;40833;53.238;6.576;2022-10-17T12:48:59;7.33;;;6.60;;
54929;SDS011;40833;53.238;6.576;2022-10-17T12:56:39;8.17;;;6.60;;
54929;SDS011;40833;53.238;6.576;2022-10-17T12:59:16;8.77;;;6.33;;
54929;SDS011;40833;53.238;6.576;2022-10-17T13:01:49;8.30;;;5.13;;
54929;SDS011;40833;53.238;6.576;2022-10-17T13:04:17;7.40;;;5.53;;
54929;SDS011;40833;53.238;6.576;2022-10-17T13:06:45;8.60;;;5.20;;
54929;SDS011;40833;53.238;6.576;2022-10-17T13:11:52;8.00;;;5.27;;
54929;SDS011;40833;53.238;6.576;2022-10-17T13:14:21;6.73;;;4.70;;
54929;SDS011;40833;53.238;6.576;2022-10-17T13:16:58;6.90;;;4.67;;
54929;SDS011;40833;53.238;6.576;2022-10-17T13:19:44;4.73;;;4.30;;
54929;SDS011;40833;53.238;6.576;2022-10-17T13:22:12;7.63;;;5.10;;
54929;SDS011;40833;53.238;6.576;2022-10-17T13:24:50;6.87;;;5.10;;
54929;SDS011;40833;53.238;6.576;2022-10-17T13:29:58;6.70;;;4.37;;
54929;SDS011;40833;53.238;6.576;2022-10-17T13:32:33;8.97;;;5.37;;
54929;SDS011;40833;53.238;6.576;2022-10-17T13:35:06;7.73;;;3.60;;
54929;SDS011;40833;53.238;6.576;2022-10-17T13:37:37;5.47;;;3.30;;
54929;SDS011;40833;53.238;6.576;2022-10-17T13:40:26;6.00;;;3.67;;
54929;SDS011;40833;53.238;6.576;2022-10-17T13:42:54;6.77;;;4.17;;
54929;SDS011;40833;53.238;6.576;2022-10-17T13:45:56;7.77;;;5.40;;
54929;SDS011;40833;53.238;6.576;2022-10-17T13:48:17;11.53;;;6.07;;
54929;SDS011;40833;53.238;6.576;2022-10-17T13:50:47;7.90;;;5.30;;
54929;SDS011;40833;53.238;6.576;2022-10-17T13:53:28;7.20;;;4.43;;
54929;SDS011;40833;53.238;6.576;2022-10-17T13:56:01;8.10;;;3.63;;
54929;SDS011;40833;53.238;6.576;2022-10-17T13:58:43;7.23;;;3.60;;
54929;SDS011;40833;53.238;6.576;2022-10-17T14:01:11;6.95;;;4.00;;
54929;SDS011;40833;53.238;6.576;2022-10-17T14:03:39;6.70;;;3.67;;
54929;SDS011;40833;53.238;6.576;2022-10-17T14:11:25;4.40;;;2.70;;
54929;SDS011;40833;53.238;6.576;2022-10-17T14:13:54;4.13;;;2.30;;
54929;SDS011;40833;53.238;6.576;2022-10-17T14:16:22;5.00;;;2.10;;
54929;SDS011;40833;53.238;6.576;2022-10-17T14:18:50;4.40;;;1.90;;
54929;SDS011;40833;53.238;6.576;2022-10-17T14:21:18;5.30;;;2.00;;
54929;SDS011;40833;53.238;6.576;2022-10-17T14:23:45;5.40;;;2.00;;
54929;SDS011;40833;53.238;6.576;2022-10-17T14:26:13;5.77;;;1.80;;
54929;SDS011;40833;53.238;6.576;2022-10-17T14:28:42;8.93;;;2.27;;
54929;SDS011;40833;53.238;6.576;2022-10-17T14:31:11;3.50;;;1.80;;
54929;SDS011;40833;53.238;6.576;2022-10-17T14:33:44;4.73;;;2.33;;
54929;SDS011;40833;53.238;6.576;2022-10-17T14:36:11;4.73;;;1.97;;
54929;SDS011;40833;53.238;6.576;2022-10-17T14:38:42;3.83;;;2.30;;
54929;SDS011;40833;53.238;6.576;2022-10-17T14:41:21;4.83;;;2.03;;
54929;SDS011;40833;53.238;6.576;2022-10-17T14:44:07;2.97;;;2.00;;
54929;SDS011;40833;53.238;6.576;2022-10-17T14:46:46;8.63;;;2.40;;
54929;SDS011;40833;53.238;6.576;2022-10-17T14:49:18;4.53;;;2.80;;
54929;SDS011;40833;53.238;6.576;2022-10-17T14:52:09;5.27;;;2.57;;
54929;SDS011;40833;53.238;6.576;2022-10-17T14:54:35;6.33;;;2.23;;
54929;SDS011;40833;53.238;6.576;2022-10-17T14:57:07;6.10;;;2.27;;
54929;SDS011;40833;53.238;6.576;2022-10-17T14:59:57;5.43;;;2.40;;
54929;SDS011;40833;53.238;6.576;2022-10-17T15:02:23;7.70;;;2.40;;
54929;SDS011;40833;53.238;6.576;2022-10-17T15:04:50;4.47;;;2.30;;
54929;SDS011;40833;53.238;6.576;2022-10-17T15:07:17;8.53;;;2.67;;
54929;SDS011;40833;53.238;6.576;2022-10-17T15:09:43;5.13;;;2.17;;
54929;SDS011;40833;53.238;6.576;2022-10-17T15:12:15;7.10;;;2.93;;
54929;SDS011;40833;53.238;6.576;2022-10-17T15:14:46;3.40;;;2.50;;
54929;SDS011;40833;53.238;6.576;2022-10-17T15:17:17;6.17;;;2.47;;
54929;SDS011;40833;53.238;6.576;2022-10-17T15:19:45;7.13;;;2.33;;
54929;SDS011;40833;53.238;6.576;2022-10-17T15:22:11;5.13;;;2.73;;
54929;SDS011;40833;53.238;6.576;2022-10-17T15:24:38;7.10;;;3.10;;
54929;SDS011;40833;53.238;6.576;2022-10-17T15:29:41;8.70;;;2.60;;
54929;SDS011;40833;53.238;6.576;2022-10-17T15:32:07;5.13;;;2.47;;
54929;SDS011;40833;53.238;6.576;2022-10-17T15:34:33;6.57;;;3.07;;
54929;SDS011;40833;53.238;6.576;2022-10-17T15:36:59;8.50;;;3.37;;
54929;SDS011;40833;53.238;6.576;2022-10-17T15:39:28;7.80;;;2.67;;
54929;SDS011;40833;53.238;6.576;2022-10-17T15:41:53;9.20;;;2.97;;
54929;SDS011;40833;53.238;6.576;2022-10-17T15:44:19;11.73;;;2.63;;
54929;SDS011;40833;53.238;6.576;2022-10-17T15:46:45;6.90;;;2.07;;
54929;SDS011;40833;53.238;6.576;2022-10-17T15:49:12;4.50;;;1.93;;
54929;SDS011;40833;53.238;6.576;2022-10-17T15:51:41;6.13;;;2.40;;
54929;SDS011;40833;53.238;6.576;2022-10-17T15:54:07;4.67;;;2.00;;
54929;SDS011;40833;53.238;6.576;2022-10-17T15:56:36;5.47;;;2.43;;
54929;SDS011;40833;53.238;6.576;2022-10-17T15:59:05;7.78;;;2.50;;
54929;SDS011;40833;53.238;6.576;2022-10-17T16:01:35;4.18;;;2.58;;
54929;SDS011;40833;53.238;6.576;2022-10-17T16:04:02;6.27;;;1.63;;
54929;SDS011;40833;53.238;6.576;2022-10-17T16:06:28;3.50;;;1.90;;
54929;SDS011;40833;53.238;6.576;2022-10-17T16:08:53;7.63;;;2.03;;
54929;SDS011;40833;53.238;6.576;2022-10-17T16:11:30;8.13;;;2.47;;
54929;SDS011;40833;53.238;6.576;2022-10-17T16:13:58;8.17;;;2.27;;
54929;SDS011;40833;53.238;6.576;2022-10-17T16:16:25;5.77;;;2.60;;
54929;SDS011;40833;53.238;6.576;2022-10-17T16:18:51;7.50;;;2.43;;
54929;SDS011;40833;53.238;6.576;2022-10-17T16:21:17;6.17;;;2.33;;
54929;SDS011;40833;53.238;6.576;2022-10-17T16:23:44;7.10;;;2.10;;
54929;SDS011;40833;53.238;6.576;2022-10-17T16:26:10;5.60;;;2.40;;
54929;SDS011;40833;53.238;6.576;2022-10-17T16:28:40;6.07;;;2.67;;
54929;SDS011;40833;53.238;6.576;2022-10-17T16:33:47;7.70;;;2.30;;
54929;SDS011;40833;53.238;6.576;2022-10-17T16:36:14;7.47;;;2.53;;
54929;SDS011;40833;53.238;6.576;2022-10-17T16:38:40;9.13;;;2.80;;
54929;SDS011;40833;53.238;6.576;2022-10-17T16:41:39;6.93;;;2.57;;
54929;SDS011;40833;53.238;6.576;2022-10-17T16:44:00;5.03;;;2.37;;
54929;SDS011;40833;53.238;6.576;2022-10-17T16:46:28;6.27;;;2.53;;
54929;SDS011;40833;53.238;6.576;2022-10-17T16:48:55;6.83;;;2.60;;
54929;SDS011;40833;53.238;6.576;2022-10-17T16:51:21;5.53;;;3.10;;
54929;SDS011;40833;53.238;6.576;2022-10-17T16:53:48;3.93;;;2.90;;
54929;SDS011;40833;53.238;6.576;2022-10-17T16:56:17;5.47;;;3.13;;
54929;SDS011;40833;53.238;6.576;2022-10-17T16:58:45;6.27;;;3.60;;
54929;SDS011;40833;53.238;6.576;2022-10-17T17:01:16;7.70;;;3.30;;
54929;SDS011;40833;53.238;6.576;2022-10-17T17:03:44;4.97;;;2.80;;